createdAt,value
2022-12-04T00:02:11.133Z,84.20
2022-12-04T00:04:37.750Z,74.97
2022-12-04T00:07:04.790Z,77.87
2022-12-04T00:09:31.203Z,82.33
2022-12-04T00:11:58.660Z,79.37
2022-12-04T00:14:25.080Z,79.80
2022-12-04T00:16:51.643Z,86.67
2022-12-04T00:19:18.255Z,82.80
2022-12-04T00:21:45.243Z,82.67
2022-12-04T00:24:12.547Z,87.67
2022-12-04T00:26:39.060Z,81.80
2022-12-04T00:29:05.686Z,82.03
2022-12-04T00:31:32.445Z,84.47
2022-12-04T00:34:00.359Z,87.87
2022-12-04T00:36:29.011Z,88.40
2022-12-04T00:38:56.415Z,91.00
2022-12-04T00:41:25.034Z,94.97
2022-12-04T00:43:52.510Z,89.23
2022-12-04T00:46:19.487Z,86.93
2022-12-04T00:48:46.344Z,93.27
2022-12-04T00:51:21.024Z,88.90
2022-12-04T00:53:48.002Z,89.97
2022-12-04T00:56:18.684Z,92.63
2022-12-04T00:58:45.774Z,91.63
2022-12-04T01:01:18.403Z,86.20
2022-12-04T01:03:45.370Z,85.87
2022-12-04T01:06:25.375Z,92.87
2022-12-04T01:08:54.395Z,92.30
2022-12-04T01:11:22.621Z,88.70
2022-12-04T01:13:49.414Z,89.17
2022-12-04T01:16:17.937Z,83.90
2022-12-04T01:18:44.861Z,88.37
2022-12-04T01:21:12.148Z,89.90
2022-12-04T01:23:38.728Z,92.47
2022-12-04T01:26:05.733Z,90.77
2022-12-04T01:28:32.479Z,88.47
2022-12-04T01:31:06.206Z,82.53
2022-12-04T01:33:35.043Z,86.07
2022-12-04T01:36:05.956Z,90.03
2022-12-04T01:38:33.656Z,88.97
2022-12-04T01:41:00.331Z,88.97
2022-12-04T01:43:28.798Z,92.67
2022-12-04T01:45:57.005Z,85.63
2022-12-04T01:48:52.715Z,85.77
2022-12-04T01:51:25.182Z,92.30
2022-12-04T01:53:55.941Z,84.10
2022-12-04T01:56:27.502Z,86.73
2022-12-04T01:58:58.871Z,90.20
2022-12-04T02:01:29.158Z,81.87
2022-12-04T02:03:55.904Z,87.30
2022-12-04T02:06:22.418Z,86.80
2022-12-04T02:08:48.855Z,90.80
2022-12-04T02:11:45.397Z,92.57
2022-12-04T02:14:46.451Z,93.07
2022-12-04T02:17:19.130Z,87.37
2022-12-04T02:20:04.661Z,94.33
2022-12-04T02:22:45.412Z,89.70
2022-12-04T02:25:52.023Z,88.13
2022-12-04T02:28:46.311Z,86.87
2022-12-04T02:31:19.250Z,84.97
2022-12-04T02:33:54.084Z,83.87
2022-12-04T02:36:28.649Z,81.80
2022-12-04T02:39:10.719Z,86.37
2022-12-04T02:41:46.989Z,84.77
2022-12-04T02:44:23.789Z,82.37
2022-12-04T02:46:57.164Z,79.90
2022-12-04T02:49:37.664Z,76.03
2022-12-04T02:52:10.054Z,80.23
2022-12-04T02:54:41.346Z,84.67
2022-12-04T02:57:13.906Z,84.07
2022-12-04T02:59:45.395Z,82.17
2022-12-04T03:02:23.433Z,80.10
2022-12-04T03:04:51.917Z,83.00
2022-12-04T03:07:26.038Z,84.10
2022-12-04T03:09:59.409Z,83.30
2022-12-04T03:12:50.243Z,78.97
2022-12-04T03:15:23.330Z,83.60
2022-12-04T03:18:01.855Z,77.93
2022-12-04T03:20:32.479Z,77.87
2022-12-04T03:23:09.674Z,79.00
2022-12-04T03:25:47.436Z,73.57
2022-12-04T03:28:32.380Z,76.93
2022-12-04T03:31:05.744Z,71.70
2022-12-04T03:33:41.845Z,72.97
2022-12-04T03:36:18.444Z,72.53
2022-12-04T03:38:54.364Z,76.63
2022-12-04T03:41:27.033Z,76.07
2022-12-04T03:44:13.124Z,72.77
2022-12-04T03:46:54.818Z,71.53
2022-12-04T03:49:31.734Z,75.27
2022-12-04T03:52:16.947Z,66.10
2022-12-04T03:54:53.695Z,76.43
2022-12-04T03:57:27.352Z,73.63
2022-12-04T04:00:08.754Z,72.17
2022-12-04T04:02:39.690Z,67.33
2022-12-04T04:05:09.851Z,76.47
2022-12-04T04:08:18.589Z,78.87
2022-12-04T04:10:45.579Z,69.47
2022-12-04T04:13:35.538Z,78.30
2022-12-04T04:16:24.404Z,73.83
2022-12-04T04:19:11.816Z,75.13
2022-12-04T04:22:07.919Z,76.60
2022-12-04T04:24:34.695Z,77.20
2022-12-04T04:27:01.760Z,77.43
2022-12-04T04:29:28.388Z,74.73
2022-12-04T04:32:03.594Z,80.23
2022-12-04T04:34:57.875Z,74.30
2022-12-04T04:37:30.607Z,75.50
2022-12-04T04:40:05.834Z,74.83
2022-12-04T04:42:48.651Z,72.40
2022-12-04T04:45:25.613Z,80.90
2022-12-04T04:48:00.779Z,74.30
2022-12-04T04:50:28.919Z,78.87
2022-12-04T04:53:01.312Z,70.57
2022-12-04T04:55:28.991Z,77.47
2022-12-04T04:58:07.050Z,73.03
2022-12-04T05:00:33.691Z,79.43
2022-12-04T05:03:00.243Z,79.43
2022-12-04T05:05:26.747Z,80.87
2022-12-04T05:07:53.272Z,86.40
2022-12-04T05:10:19.753Z,81.27
2022-12-04T05:12:46.230Z,80.63
2022-12-04T05:15:12.692Z,81.00
2022-12-04T05:17:39.131Z,85.10
2022-12-04T05:20:06.436Z,83.63
2022-12-04T05:22:34.957Z,82.17
2022-12-04T05:25:02.705Z,82.93
2022-12-04T05:27:30.276Z,85.00
2022-12-04T05:29:58.380Z,91.00
2022-12-04T05:32:27.431Z,87.67
2022-12-04T05:34:55.518Z,87.67
2022-12-04T05:37:23.042Z,90.00
2022-12-04T05:39:49.546Z,82.63
2022-12-04T05:42:16.062Z,85.10
2022-12-04T05:44:42.671Z,88.67
2022-12-04T05:47:09.268Z,91.57
2022-12-04T05:49:36.115Z,95.37
2022-12-04T05:52:04.787Z,78.77
2022-12-04T05:54:31.766Z,83.17
2022-12-04T05:56:58.399Z,91.37
2022-12-04T05:59:24.828Z,89.47
2022-12-04T06:01:51.372Z,83.40
2022-12-04T06:04:17.822Z,88.00
2022-12-04T06:06:44.331Z,95.20
2022-12-04T06:09:11.929Z,86.53
2022-12-04T06:11:39.888Z,94.20
2022-12-04T06:14:08.803Z,94.27
2022-12-04T06:16:38.091Z,87.40
2022-12-04T06:19:11.289Z,87.37
2022-12-04T06:21:40.351Z,85.60
2022-12-04T06:24:07.790Z,87.00
2022-12-04T06:26:34.733Z,84.87
2022-12-04T06:29:02.325Z,92.23
2022-12-04T06:31:29.848Z,83.33
2022-12-04T06:33:57.699Z,85.60
2022-12-04T06:36:24.993Z,90.50
2022-12-04T06:38:54.311Z,85.27
2022-12-04T06:41:21.681Z,80.77
2022-12-04T06:43:48.830Z,89.07
2022-12-04T06:46:18.783Z,88.27
2022-12-04T06:48:45.466Z,89.90
2022-12-04T06:51:15.016Z,85.97
2022-12-04T06:53:42.523Z,83.77
2022-12-04T06:56:12.816Z,79.60
2022-12-04T06:58:39.222Z,81.97
2022-12-04T07:01:08.101Z,82.70
2022-12-04T07:03:34.864Z,82.83
2022-12-04T07:06:16.566Z,80.53
2022-12-04T07:08:45.079Z,80.13
2022-12-04T07:11:12.439Z,81.60
2022-12-04T07:13:39.779Z,82.57
2022-12-04T07:16:08.187Z,85.60
2022-12-04T07:18:36.294Z,85.93
2022-12-04T07:21:12.091Z,80.53
2022-12-04T07:23:38.644Z,78.27
2022-12-04T07:26:10.232Z,79.03
2022-12-04T07:28:37.682Z,78.33
2022-12-04T07:31:09.302Z,75.93
2022-12-04T07:33:36.499Z,73.40
2022-12-04T07:36:05.284Z,79.83
2022-12-04T07:38:32.857Z,73.97
2022-12-04T07:41:00.021Z,76.33
2022-12-04T07:43:29.912Z,70.17
2022-12-04T07:45:59.093Z,76.53
2022-12-04T07:48:30.181Z,74.67
2022-12-04T07:51:07.219Z,74.00
2022-12-04T07:53:34.854Z,76.97
2022-12-04T07:56:02.981Z,74.80
2022-12-04T07:58:29.494Z,73.17
2022-12-04T08:00:56.124Z,71.23
2022-12-04T08:03:22.627Z,80.03
2022-12-04T08:05:49.102Z,74.37
2022-12-04T08:08:15.545Z,79.17
2022-12-04T08:10:42.112Z,69.53
2022-12-04T08:13:08.625Z,74.60
2022-12-04T08:15:35.346Z,72.33
2022-12-04T08:18:01.773Z,69.73
2022-12-04T08:20:28.283Z,68.43
2022-12-04T08:22:54.818Z,70.73
2022-12-04T08:25:21.274Z,66.13
2022-12-04T08:27:47.987Z,67.50
2022-12-04T08:30:14.554Z,67.93
2022-12-04T08:32:41.105Z,68.00
2022-12-04T08:35:08.070Z,67.73
2022-12-04T08:37:35.039Z,66.77
2022-12-04T08:40:02.904Z,71.17
2022-12-04T08:42:29.375Z,69.50
2022-12-04T08:44:55.825Z,58.83
2022-12-04T08:47:22.396Z,64.93
2022-12-04T08:49:48.874Z,61.97
2022-12-04T08:52:15.421Z,66.10
2022-12-04T08:54:41.871Z,65.07
2022-12-04T08:57:08.387Z,66.03
2022-12-04T08:59:35.271Z,68.77
2022-12-04T09:02:01.815Z,64.30
2022-12-04T09:04:28.458Z,69.10
2022-12-04T09:06:54.975Z,70.87
2022-12-04T09:09:21.483Z,70.30
2022-12-04T09:11:48.478Z,64.77
2022-12-04T09:14:14.959Z,73.27
2022-12-04T09:16:41.666Z,71.90
2022-12-04T09:19:08.179Z,66.87
2022-12-04T09:21:34.797Z,72.70
2022-12-04T09:24:01.865Z,71.20
2022-12-04T09:26:31.098Z,74.50
2022-12-04T09:28:59.696Z,68.17
2022-12-04T09:31:26.614Z,76.03
2022-12-04T09:33:53.791Z,70.73
2022-12-04T09:36:20.877Z,76.17
2022-12-04T09:38:52.808Z,71.43
2022-12-04T09:41:38.091Z,74.83
2022-12-04T09:44:32.432Z,77.43
2022-12-04T09:47:00.535Z,78.27
2022-12-04T09:49:48.662Z,75.80
2022-12-04T09:52:40.215Z,72.03
2022-12-04T09:55:14.124Z,76.77
2022-12-04T09:57:49.974Z,75.30
2022-12-04T10:00:19.717Z,77.67
2022-12-04T10:03:04.110Z,71.67
2022-12-04T10:05:55.263Z,75.77
2022-12-04T10:08:37.864Z,72.93
2022-12-04T10:11:24.683Z,77.03
2022-12-04T10:14:31.902Z,77.50
2022-12-04T10:17:32.529Z,76.90
2022-12-04T10:20:33.231Z,80.77
2022-12-04T10:23:14.414Z,80.03
2022-12-04T10:25:42.802Z,77.50
2022-12-04T10:28:23.679Z,83.60
2022-12-04T10:30:52.826Z,80.50
2022-12-04T10:33:37.899Z,80.80
2022-12-04T10:36:06.181Z,76.53
2022-12-04T10:38:39.116Z,81.07
2022-12-04T10:41:17.906Z,89.73
2022-12-04T10:43:46.808Z,78.10
2022-12-04T10:46:18.210Z,79.17
2022-12-04T10:48:48.567Z,83.13
2022-12-04T10:51:21.387Z,82.10
2022-12-04T10:53:49.384Z,79.87
2022-12-04T10:56:24.279Z,88.03
2022-12-04T10:59:05.665Z,80.83
2022-12-04T11:01:34.338Z,83.77
2022-12-04T11:04:09.179Z,87.40
2022-12-04T11:06:35.973Z,82.87
2022-12-04T11:09:04.248Z,82.13
2022-12-04T11:11:34.158Z,84.03
2022-12-04T11:14:07.294Z,76.57
2022-12-04T11:16:48.175Z,88.17
2022-12-04T11:19:26.039Z,84.30
2022-12-04T11:21:58.753Z,80.60
2022-12-04T11:24:25.147Z,85.37
2022-12-04T11:26:52.391Z,85.07
2022-12-04T11:29:21.914Z,82.37
2022-12-04T11:31:54.760Z,86.57
2022-12-04T11:34:25.011Z,81.57
2022-12-04T11:36:57.527Z,85.87
2022-12-04T11:39:35.913Z,92.70
2022-12-04T11:42:12.570Z,86.23
2022-12-04T11:44:40.389Z,84.53
2022-12-04T11:47:17.410Z,85.90
2022-12-04T11:49:44.108Z,85.37
2022-12-04T11:52:35.010Z,89.70
2022-12-04T11:55:09.155Z,87.03
2022-12-04T11:58:13.093Z,86.80
2022-12-04T12:00:51.363Z,87.63
2022-12-04T12:03:26.394Z,91.07
2022-12-04T12:06:27.182Z,81.63
2022-12-04T12:08:53.566Z,83.93
2022-12-04T12:11:27.204Z,82.13
2022-12-04T12:14:14.274Z,83.70
2022-12-04T12:16:49.976Z,85.83
2022-12-04T12:19:39.702Z,85.07
2022-12-04T12:22:26.560Z,81.53
2022-12-04T12:25:17.011Z,75.83
2022-12-04T12:28:15.168Z,89.80
2022-12-04T12:31:19.710Z,84.00
2022-12-04T12:33:51.863Z,76.30
2022-12-04T12:36:21.710Z,89.80
2022-12-04T12:38:56.791Z,82.50
2022-12-04T12:41:34.699Z,84.93
2022-12-04T12:44:06.042Z,83.33
2022-12-04T12:46:48.804Z,80.50
2022-12-04T12:49:15.291Z,79.33
2022-12-04T12:51:58.333Z,87.83
2022-12-04T12:54:53.256Z,93.50
2022-12-04T12:57:33.400Z,87.67
2022-12-04T13:00:22.251Z,87.83
2022-12-04T13:02:58.168Z,78.67
2022-12-04T13:05:33.733Z,93.83
2022-12-04T13:08:21.664Z,81.00
2022-12-04T13:11:02.151Z,88.57
2022-12-04T13:13:34.328Z,90.43
2022-12-04T13:16:11.187Z,82.37
2022-12-04T13:18:46.108Z,86.70
2022-12-04T13:21:26.331Z,84.13
2022-12-04T13:24:23.807Z,85.53
2022-12-04T13:27:03.894Z,82.10
2022-12-04T13:29:39.459Z,88.47
2022-12-04T13:32:27.794Z,84.97
2022-12-04T13:35:13.219Z,84.40
2022-12-04T13:38:05.069Z,89.10
2022-12-04T13:40:44.943Z,92.20
2022-12-04T13:43:14.182Z,90.13
2022-12-04T13:45:41.388Z,90.00
2022-12-04T13:48:09.878Z,80.07
2022-12-04T13:50:39.406Z,90.70
2022-12-04T13:53:06.888Z,94.97
2022-12-04T13:55:36.611Z,90.77
2022-12-04T13:58:12.007Z,88.17
2022-12-04T14:00:44.060Z,83.23
2022-12-04T14:03:30.283Z,89.70
2022-12-04T14:05:56.932Z,88.47
2022-12-04T14:08:25.906Z,81.73
2022-12-04T14:11:04.059Z,83.97
2022-12-04T14:13:42.399Z,90.40
2022-12-04T14:16:29.903Z,85.47
2022-12-04T14:18:59.254Z,83.70
2022-12-04T14:21:26.519Z,91.40
2022-12-04T14:23:53.470Z,92.03
2022-12-04T14:26:48.894Z,91.77
2022-12-04T14:29:39.432Z,90.70
2022-12-04T14:32:13.603Z,90.90
2022-12-04T14:34:40.653Z,89.53
2022-12-04T14:37:17.453Z,84.73
2022-12-04T14:39:48.217Z,90.47
2022-12-04T14:42:21.844Z,91.80
2022-12-04T14:45:00.848Z,98.70
2022-12-04T14:47:55.340Z,93.30
2022-12-04T14:50:41.993Z,88.50
2022-12-04T14:53:26.546Z,92.03
2022-12-04T14:56:17.127Z,92.33
2022-12-04T14:58:44.147Z,96.93
2022-12-04T15:01:28.310Z,93.33
2022-12-04T15:03:59.087Z,87.07
2022-12-04T15:06:28.182Z,89.33
2022-12-04T15:09:17.263Z,96.00
2022-12-04T15:12:09.670Z,93.80
2022-12-04T15:14:44.997Z,102.03
2022-12-04T15:17:12.910Z,94.53
2022-12-04T15:19:40.075Z,99.10
2022-12-04T15:22:28.640Z,87.40
2022-12-04T15:24:55.949Z,91.27
2022-12-04T15:27:30.534Z,92.37
2022-12-04T15:30:00.302Z,98.07
2022-12-04T15:32:28.804Z,94.60
2022-12-04T15:35:00.854Z,87.30
2022-12-04T15:37:31.040Z,94.23
2022-12-04T15:39:58.413Z,87.27
2022-12-04T15:42:29.973Z,90.60
2022-12-04T15:45:08.624Z,84.77
2022-12-04T15:47:53.619Z,96.03
2022-12-04T15:50:19.991Z,89.07
2022-12-04T15:52:53.587Z,94.67
2022-12-04T15:55:22.392Z,96.83
2022-12-04T15:57:59.725Z,87.00
2022-12-04T16:00:28.448Z,88.40
2022-12-04T16:02:56.110Z,91.33
2022-12-04T16:05:22.482Z,89.87
2022-12-04T16:07:57.741Z,90.27
2022-12-04T16:10:30.585Z,98.53
2022-12-04T16:12:59.459Z,95.50
2022-12-04T16:15:36.135Z,103.27
2022-12-04T16:18:05.992Z,95.13
2022-12-04T16:20:38.106Z,97.33
2022-12-04T16:23:05.460Z,89.83
2022-12-04T16:25:32.315Z,92.97
2022-12-04T16:27:59.994Z,96.13
2022-12-04T16:30:28.335Z,94.40
2022-12-04T16:32:54.796Z,92.27
2022-12-04T16:35:21.474Z,91.20
2022-12-04T16:37:48.010Z,91.73
2022-12-04T16:40:15.418Z,86.50
2022-12-04T16:42:43.774Z,93.47
2022-12-04T16:45:24.924Z,97.70
2022-12-04T16:47:51.791Z,85.67
2022-12-04T16:50:18.551Z,89.73
2022-12-04T16:52:45.068Z,89.23
2022-12-04T16:55:40.906Z,93.97
2022-12-04T16:58:08.243Z,86.90
2022-12-04T17:00:36.423Z,90.13
2022-12-04T17:03:04.432Z,97.20
2022-12-04T17:05:33.430Z,89.00
2022-12-04T17:08:00.557Z,96.97
2022-12-04T17:10:27.444Z,89.10
2022-12-04T17:12:54.568Z,82.67
2022-12-04T17:15:21.526Z,97.03
2022-12-04T17:17:48.406Z,91.83
2022-12-04T17:20:17.156Z,89.03
2022-12-04T17:22:43.696Z,88.30
2022-12-04T17:25:11.232Z,99.93
2022-12-04T17:27:38.448Z,93.93
2022-12-04T17:30:06.730Z,85.87
2022-12-04T17:32:34.922Z,95.57
2022-12-04T17:35:03.600Z,90.03
2022-12-04T17:37:32.380Z,84.50
2022-12-04T17:39:58.933Z,79.20
2022-12-04T17:42:25.695Z,78.83
2022-12-04T17:44:52.175Z,88.20
2022-12-04T17:47:18.636Z,82.80
2022-12-04T17:49:45.073Z,85.33
2022-12-04T17:52:11.502Z,81.47
2022-12-04T17:54:38.111Z,78.07
2022-12-04T17:57:05.103Z,87.77
2022-12-04T17:59:31.680Z,80.03
2022-12-04T18:01:58.112Z,77.50
2022-12-04T18:04:25.000Z,80.00
2022-12-04T18:06:52.599Z,74.83
2022-12-04T18:09:19.351Z,78.00
2022-12-04T18:11:47.831Z,79.10
2022-12-04T18:14:17.523Z,82.00
2022-12-04T18:16:53.262Z,84.63
2022-12-04T18:19:22.207Z,80.10
2022-12-04T18:21:49.463Z,83.83
2022-12-04T18:24:16.796Z,86.10
2022-12-04T18:26:45.518Z,80.47
2022-12-04T18:29:15.406Z,81.00
2022-12-04T18:31:42.262Z,84.03
2022-12-04T18:34:08.885Z,83.33
2022-12-04T18:36:39.253Z,82.00
2022-12-04T18:39:11.354Z,78.60
2022-12-04T18:41:38.037Z,86.93
2022-12-04T18:44:05.636Z,76.20
2022-12-04T18:46:33.033Z,86.37
2022-12-04T18:49:00.159Z,75.80
2022-12-04T18:51:31.554Z,79.77
2022-12-04T18:54:00.739Z,79.30
2022-12-04T18:56:29.243Z,79.80
2022-12-04T18:59:00.831Z,81.67
2022-12-04T19:01:28.638Z,73.60
2022-12-04T19:03:58.696Z,80.37
2022-12-04T19:06:32.454Z,88.53
2022-12-04T19:09:00.722Z,82.47
2022-12-04T19:11:28.786Z,78.97
2022-12-04T19:13:55.611Z,79.87
2022-12-04T19:16:22.377Z,83.73
2022-12-04T19:18:48.915Z,79.17
2022-12-04T19:21:16.386Z,81.67
2022-12-04T19:23:48.344Z,78.47
2022-12-04T19:26:14.791Z,71.60
2022-12-04T19:28:41.246Z,79.47
2022-12-04T19:31:14.977Z,72.27
2022-12-04T19:33:41.601Z,73.50
2022-12-04T19:36:08.512Z,80.13
2022-12-04T19:38:35.490Z,81.83
2022-12-04T19:41:12.622Z,73.23
2022-12-04T19:43:41.601Z,77.23
2022-12-04T19:46:10.225Z,77.97
2022-12-04T19:48:39.968Z,79.63
2022-12-04T19:51:12.239Z,79.73
2022-12-04T19:53:41.052Z,72.20
2022-12-04T19:56:15.005Z,74.63
2022-12-04T19:58:42.477Z,81.33
2022-12-04T20:01:12.951Z,77.27
2022-12-04T20:03:39.941Z,76.03
2022-12-04T20:06:09.825Z,84.30
2022-12-04T20:08:38.077Z,80.17
2022-12-04T20:11:07.791Z,76.83
2022-12-04T20:13:38.921Z,79.73
2022-12-04T20:16:11.477Z,78.27
2022-12-04T20:18:39.892Z,83.90
2022-12-04T20:21:11.133Z,83.13
2022-12-04T20:23:39.233Z,77.77
2022-12-04T20:26:07.900Z,77.13
2022-12-04T20:28:34.699Z,77.10
2022-12-04T20:31:02.256Z,80.47
2022-12-04T20:33:28.708Z,93.33
2022-12-04T20:35:55.465Z,89.20
2022-12-04T20:38:21.934Z,87.70
2022-12-04T20:40:48.381Z,82.57
2022-12-04T20:43:14.836Z,85.60
2022-12-04T20:45:41.467Z,84.20
2022-12-04T20:48:08.468Z,87.80
2022-12-04T20:50:36.142Z,82.00
2022-12-04T20:53:07.609Z,78.73
2022-12-04T20:55:34.172Z,83.93
2022-12-04T20:58:00.639Z,84.30
2022-12-04T21:00:28.635Z,88.50
2022-12-04T21:02:55.125Z,85.13
2022-12-04T21:05:21.938Z,86.13
2022-12-04T21:07:48.393Z,80.30
2022-12-04T21:10:15.007Z,82.30
2022-12-04T21:13:00.238Z,87.00
2022-12-04T21:15:48.230Z,82.23
2022-12-04T21:18:14.747Z,80.07
2022-12-04T21:20:41.224Z,78.47
2022-12-04T21:23:07.836Z,82.67
2022-12-04T21:25:34.234Z,77.70
2022-12-04T21:28:03.003Z,82.97
2022-12-04T21:30:29.524Z,89.20
2022-12-04T21:32:55.991Z,82.73
2022-12-04T21:35:22.452Z,81.83
2022-12-04T21:37:48.866Z,78.20
2022-12-04T21:40:15.446Z,79.57
2022-12-04T21:42:43.780Z,80.40
2022-12-04T21:45:10.607Z,79.23
2022-12-04T21:47:37.500Z,79.90
2022-12-04T21:50:05.552Z,83.60
2022-12-04T21:52:32.456Z,75.37
2022-12-04T21:54:58.927Z,76.40
2022-12-04T21:57:27.423Z,79.20
2022-12-04T21:59:54.004Z,85.70
2022-12-04T22:02:21.182Z,86.37
2022-12-04T22:04:47.807Z,79.20
2022-12-04T22:07:14.290Z,78.50
2022-12-04T22:09:42.404Z,80.10
2022-12-04T22:12:33.195Z,79.70
2022-12-04T22:14:56.082Z,80.50
2022-12-04T22:17:22.535Z,84.30
2022-12-04T22:19:48.991Z,79.97
2022-12-04T22:22:15.440Z,81.30
2022-12-04T22:24:42.079Z,82.83
2022-12-04T22:27:14.741Z,75.63
2022-12-04T22:30:02.133Z,80.47
2022-12-04T22:32:27.924Z,77.77
2022-12-04T22:34:54.372Z,82.07
2022-12-04T22:37:20.788Z,83.87
2022-12-04T22:39:47.329Z,78.60
2022-12-04T22:42:13.794Z,85.63
2022-12-04T22:44:40.239Z,82.97
2022-12-04T22:47:06.950Z,79.87
2022-12-04T22:49:33.564Z,77.27
2022-12-04T22:52:00.021Z,79.30
2022-12-04T22:54:27.907Z,81.63
2022-12-04T22:56:54.407Z,89.00
2022-12-04T22:59:20.877Z,83.57
2022-12-04T23:01:47.295Z,83.30
2022-12-04T23:04:13.730Z,81.30
2022-12-04T23:06:40.213Z,80.23
2022-12-04T23:09:12.639Z,83.03
2022-12-04T23:11:40.154Z,72.93
2022-12-04T23:14:09.113Z,87.70
2022-12-04T23:16:38.356Z,87.93
2022-12-04T23:19:07.518Z,82.47
2022-12-04T23:21:34.729Z,82.07
2022-12-04T23:24:01.361Z,86.90
2022-12-04T23:26:32.584Z,76.67
2022-12-04T23:28:59.484Z,78.93
2022-12-04T23:31:26.012Z,80.93
2022-12-04T23:33:52.635Z,82.27
2022-12-04T23:36:19.388Z,81.07
2022-12-04T23:38:46.356Z,81.83
2022-12-04T23:41:18.356Z,79.63
2022-12-04T23:43:45.410Z,78.10
2022-12-04T23:46:14.739Z,75.20
2022-12-04T23:48:43.849Z,80.13
2022-12-04T23:51:12.696Z,81.33
2022-12-04T23:53:39.183Z,80.03
2022-12-04T23:56:23.779Z,81.63
2022-12-04T23:58:52.681Z,73.70
